DEFOG EDLP-EDLP
Flight info
| Callsign | DEFOG |
|---|---|
| Flight time | N/A |
| Altitude | |
| Route | |
| Aircraft | C208 |
Departure
| Time | 2026-04-29 12:41 |
|---|---|
| Airport | Paderborn Lippstadt Airport (EDLP) |
Arrival
| Time | N/A |
|---|---|
| Airport | Paderborn Lippstadt Airport (EDLP) |
| Time | Latitude | Longitude | Altitude | Speed | Heading |
|---|---|---|---|---|---|
| 2026-04-29 12:40 | 51.60922 | 8.60443 | 717 ft | 32 kts | 56° |
| 2026-04-29 12:40 | 51.61180 | 8.61065 | 754 ft | 93 kts | 57° |
| 2026-04-29 12:40 | 51.61581 | 8.62028 | 1021 ft | 109 kts | 58° |
| 2026-04-29 12:41 | 51.62009 | 8.63107 | 1300 ft | 120 kts | 61° |
| 2026-04-29 12:41 | 51.62442 | 8.64236 | 1664 ft | 116 kts | 62° |
| 2026-04-29 12:41 | 51.63168 | 8.64875 | 1643 ft | 132 kts | 7° |
| 2026-04-29 12:41 | 51.64060 | 8.64239 | 1594 ft | 150 kts | 336° |
| 2026-04-29 12:42 | 51.64830 | 8.63118 | 1634 ft | 157 kts | 296° |
| 2026-04-29 12:42 | 51.64801 | 8.61387 | 1658 ft | 157 kts | 240° |
| 2026-04-29 12:42 | 51.64219 | 8.59883 | 1700 ft | 158 kts | 234° |
| 2026-04-29 12:42 | 51.63584 | 8.58462 | 1788 ft | 155 kts | 232° |
| 2026-04-29 12:43 | 51.62914 | 8.57057 | 1787 ft | 162 kts | 230° |
| 2026-04-29 12:43 | 51.62304 | 8.55530 | 1874 ft | 158 kts | 236° |
| 2026-04-29 12:43 | 51.61531 | 8.54286 | 1802 ft | 161 kts | 202° |
| 2026-04-29 12:43 | 51.60577 | 8.54103 | 1796 ft | 117 kts | 152° |
| 2026-04-29 12:44 | 51.59908 | 8.54752 | 1840 ft | 119 kts | 123° |
| 2026-04-29 12:44 | 51.59551 | 8.55925 | 1615 ft | 105 kts | 103° |
| 2026-04-29 12:44 | 51.59586 | 8.57052 | 1315 ft | 114 kts | 71° |
| 2026-04-29 12:44 | 51.60017 | 8.58237 | 1103 ft | 132 kts | 60° |
| 2026-04-29 12:45 | 51.60505 | 8.59426 | 934 ft | 120 kts | 53° |
| 2026-04-29 12:45 | 51.60936 | 8.60476 | 717 ft | 97 kts | 58° |
| 2026-04-29 12:45 | 51.61292 | 8.61350 | 784 ft | 103 kts | 57° |
| 2026-04-29 12:45 | 51.61711 | 8.62368 | 1081 ft | 114 kts | 59° |
| 2026-04-29 12:46 | 51.62370 | 8.63096 | 1282 ft | 137 kts | 5° |
| 2026-04-29 12:46 | 51.63321 | 8.63119 | 1591 ft | 137 kts | 7° |
| 2026-04-29 12:46 | 51.64297 | 8.63247 | 1618 ft | 141 kts | 15° |
| 2026-04-29 12:46 | 51.65244 | 8.63453 | 1728 ft | 133 kts | 17° |
| 2026-04-29 12:47 | 51.66145 | 8.63587 | 1888 ft | 135 kts | 2° |
| 2026-04-29 12:47 | 51.67077 | 8.63228 | 2074 ft | 135 kts | 351° |
| 2026-04-29 12:47 | 51.67929 | 8.62501 | 2198 ft | 144 kts | 332° |
| 2026-04-29 12:47 | 51.68770 | 8.61561 | 2213 ft | 149 kts | 333° |
| 2026-04-29 12:48 | 51.69645 | 8.60652 | 2246 ft | 150 kts | 332° |
| 2026-04-29 12:48 | 51.70315 | 8.59434 | 2652 ft | 151 kts | 287° |
| 2026-04-29 12:48 | 51.70069 | 8.57870 | 3017 ft | 148 kts | 220° |
| 2026-04-29 12:48 | 51.69152 | 8.57263 | 3308 ft | 148 kts | 180° |
| 2026-04-29 12:49 | 51.68104 | 8.57090 | 3533 ft | 153 kts | 176° |
| 2026-04-29 12:49 | 51.67026 | 8.56953 | 3828 ft | 157 kts | 191° |
| 2026-04-29 12:49 | 51.66205 | 8.55705 | 3981 ft | 178 kts | 250° |
| 2026-04-29 12:49 | 51.66059 | 8.53708 | 4142 ft | 184 kts | 266° |
| 2026-04-29 12:50 | 51.65979 | 8.51613 | 4157 ft | 193 kts | 268° |
| 2026-04-29 12:50 | 51.65864 | 8.49419 | 4040 ft | 191 kts | 266° |
| 2026-04-29 12:50 | 51.65787 | 8.47430 | 3937 ft | 172 kts | 269° |
| 2026-04-29 12:50 | 51.65736 | 8.45619 | 3897 ft | 165 kts | 269° |
| 2026-04-29 12:51 | 51.65683 | 8.43749 | 3916 ft | 168 kts | 271° |
| 2026-04-29 12:51 | 51.65669 | 8.41884 | 3921 ft | 167 kts | 269° |
| 2026-04-29 12:51 | 51.65639 | 8.40012 | 3949 ft | 167 kts | 269° |
| 2026-04-29 12:51 | 51.65638 | 8.38164 | 3982 ft | 165 kts | 271° |
| 2026-04-29 12:52 | 51.65684 | 8.36339 | 4129 ft | 160 kts | 277° |
| 2026-04-29 12:52 | 51.65788 | 8.34509 | 4117 ft | 166 kts | 270° |
| 2026-04-29 12:52 | 51.65540 | 8.32668 | 4067 ft | 168 kts | 246° |
| 2026-04-29 12:52 | 51.65071 | 8.30896 | 3947 ft | 177 kts | 247° |
| 2026-04-29 12:53 | 51.64600 | 8.29139 | 4061 ft | 168 kts | 243° |
| 2026-04-29 12:53 | 51.64095 | 8.27402 | 3951 ft | 177 kts | 243° |
| 2026-04-29 12:53 | 51.63579 | 8.25547 | 3798 ft | 184 kts | 247° |
| 2026-04-29 12:53 | 51.63160 | 8.23625 | 3858 ft | 175 kts | 250° |
| 2026-04-29 12:54 | 51.62746 | 8.21793 | 3867 ft | 174 kts | 249° |
| 2026-04-29 12:54 | 51.62351 | 8.19931 | 3887 ft | 173 kts | 251° |
| 2026-04-29 12:54 | 51.61995 | 8.18106 | 3966 ft | 171 kts | 252° |
| 2026-04-29 12:54 | 51.61658 | 8.16271 | 3963 ft | 169 kts | 253° |
| 2026-04-29 12:55 | 51.61319 | 8.14467 | 4006 ft | 168 kts | 253° |
| 2026-04-29 12:55 | 51.60988 | 8.12686 | 4054 ft | 165 kts | 252° |
| 2026-04-29 12:55 | 51.60661 | 8.10943 | 4092 ft | 166 kts | 252° |
| 2026-04-29 12:55 | 51.60336 | 8.09132 | 4076 ft | 173 kts | 256° |
| 2026-04-29 12:56 | 51.60113 | 8.07217 | 4108 ft | 173 kts | 260° |
| 2026-04-29 12:56 | 51.59872 | 8.05337 | 4181 ft | 169 kts | 247° |
| 2026-04-29 12:56 | 51.59179 | 8.03807 | 4091 ft | 170 kts | 225° |
| 2026-04-29 12:56 | 51.58395 | 8.02366 | 4102 ft | 171 kts | 226° |
| 2026-04-29 12:57 | 51.57660 | 8.00964 | 4289 ft | 162 kts | 225° |
| 2026-04-29 12:57 | 51.56934 | 7.99547 | 4193 ft | 168 kts | 227° |
| 2026-04-29 12:57 | 51.56205 | 7.98059 | 4189 ft | 169 kts | 228° |
| 2026-04-29 12:57 | 51.55474 | 7.96575 | 4157 ft | 169 kts | 222° |
| 2026-04-29 12:58 | 51.54663 | 7.95168 | 4067 ft | 172 kts | 224° |
| 2026-04-29 12:58 | 51.53879 | 7.93725 | 4114 ft | 171 kts | 226° |
| 2026-04-29 12:58 | 51.53124 | 7.92268 | 4078 ft | 169 kts | 228° |
| 2026-04-29 12:58 | 51.52395 | 7.90805 | 4179 ft | 164 kts | 230° |
| 2026-04-29 12:59 | 51.51704 | 7.89421 | 4250 ft | 163 kts | 227° |
| 2026-04-29 12:59 | 51.50982 | 7.87846 | 4073 ft | 186 kts | 233° |